createdAt,value
2018-08-22T00:00:24.252Z,1.50
2018-08-22T00:02:52.515Z,1.37
2018-08-22T00:05:20.824Z,1.93
2018-08-22T00:07:49.022Z,1.77
2018-08-22T00:10:17.336Z,1.70
2018-08-22T00:12:45.626Z,1.73
2018-08-22T00:15:13.945Z,2.07
2018-08-22T00:17:42.124Z,2.07
2018-08-22T00:20:10.443Z,1.90
2018-08-22T00:22:38.628Z,1.70
2018-08-22T00:25:06.859Z,1.70
2018-08-22T00:27:35.070Z,1.83
2018-08-22T00:30:03.442Z,2.30
2018-08-22T00:32:31.635Z,1.93
2018-08-22T00:34:59.824Z,1.90
2018-08-22T00:37:28.017Z,1.87
2018-08-22T00:39:56.203Z,1.73
2018-08-22T00:42:24.437Z,2.43
2018-08-22T00:44:52.612Z,2.13
2018-08-22T00:47:20.808Z,1.93
2018-08-22T00:49:49.115Z,2.20
2018-08-22T00:52:17.374Z,1.60
2018-08-22T00:54:45.935Z,2.00
2018-08-22T00:57:14.162Z,2.20
2018-08-22T00:59:42.357Z,2.10
2018-08-22T01:02:10.584Z,2.30
2018-08-22T01:04:38.872Z,2.10
2018-08-22T01:07:07.250Z,2.20
2018-08-22T01:09:35.483Z,2.30
2018-08-22T01:12:03.713Z,2.57
2018-08-22T01:14:31.910Z,2.43
2018-08-22T01:17:00.110Z,2.40
2018-08-22T01:19:28.303Z,2.47
2018-08-22T01:21:56.558Z,2.47
2018-08-22T01:24:24.776Z,2.20
2018-08-22T01:26:53.012Z,2.13
2018-08-22T01:29:21.237Z,2.50
2018-08-22T01:31:49.479Z,2.13
2018-08-22T01:34:17.677Z,2.60
2018-08-22T01:36:45.908Z,2.23
2018-08-22T01:39:14.134Z,2.20
2018-08-22T01:41:42.327Z,2.20
2018-08-22T01:44:10.691Z,2.27
2018-08-22T01:46:38.940Z,2.40
2018-08-22T01:49:07.173Z,1.93
2018-08-22T01:51:35.365Z,2.30
2018-08-22T01:54:03.606Z,2.33
2018-08-22T01:56:31.982Z,2.07
2018-08-22T01:59:00.176Z,2.40
2018-08-22T02:01:28.430Z,2.60
2018-08-22T02:03:56.676Z,2.47
2018-08-22T02:06:24.975Z,2.43
2018-08-22T02:08:53.228Z,2.40
2018-08-22T02:11:21.430Z,2.60
2018-08-22T02:13:49.670Z,2.70
2018-08-22T02:16:18.006Z,2.63
2018-08-22T02:18:46.234Z,3.03
2018-08-22T02:21:14.448Z,2.80
2018-08-22T02:23:42.675Z,2.67
2018-08-22T02:26:10.897Z,2.70
2018-08-22T02:28:39.149Z,2.90
2018-08-22T02:31:07.448Z,2.67
2018-08-22T02:33:35.660Z,2.80
2018-08-22T02:36:03.871Z,2.80
2018-08-22T02:38:32.180Z,2.97
2018-08-22T02:41:00.388Z,2.70
2018-08-22T02:43:28.578Z,2.73
2018-08-22T02:45:56.819Z,3.00
2018-08-22T02:48:25.044Z,2.93
2018-08-22T02:50:53.212Z,2.87
2018-08-22T02:53:21.452Z,2.80
2018-08-22T02:55:49.985Z,2.70
2018-08-22T02:58:18.160Z,2.90
2018-08-22T03:00:46.436Z,2.63
2018-08-22T03:03:14.660Z,2.80
2018-08-22T03:05:42.870Z,3.00
2018-08-22T03:08:11.070Z,3.40
2018-08-22T03:10:39.322Z,2.90
2018-08-22T03:13:07.524Z,3.03
2018-08-22T03:15:35.789Z,2.97
2018-08-22T03:18:03.996Z,2.50
2018-08-22T03:20:32.179Z,2.80
2018-08-22T03:23:00.436Z,3.20
2018-08-22T03:25:28.695Z,3.13
2018-08-22T03:27:56.915Z,3.20
2018-08-22T03:30:25.156Z,3.27
2018-08-22T03:32:53.408Z,3.20
2018-08-22T03:35:21.686Z,3.10
2018-08-22T03:37:50.088Z,3.70
2018-08-22T03:40:18.960Z,3.23
2018-08-22T03:42:47.180Z,3.00
2018-08-22T03:45:15.418Z,3.27
2018-08-22T03:47:43.612Z,3.60
2018-08-22T03:50:11.808Z,3.13
2018-08-22T03:52:40.833Z,3.60
2018-08-22T03:55:09.037Z,3.30
2018-08-22T03:57:37.454Z,3.67
2018-08-22T04:00:05.733Z,3.40
2018-08-22T04:02:34.072Z,3.43
2018-08-22T04:05:02.356Z,3.73
2018-08-22T04:07:30.640Z,3.30
2018-08-22T04:09:58.897Z,3.50
2018-08-22T04:12:27.917Z,3.73
2018-08-22T04:14:56.235Z,3.70
2018-08-22T04:17:40.648Z,3.63
2018-08-22T04:20:09.372Z,3.50
2018-08-22T04:22:40.272Z,3.77
2018-08-22T04:25:09.093Z,4.17
2018-08-22T04:27:37.319Z,3.60
2018-08-22T04:30:05.672Z,3.73
2018-08-22T04:32:33.938Z,3.70
2018-08-22T04:35:02.168Z,4.03
2018-08-22T04:37:30.438Z,3.73
2018-08-22T04:39:58.727Z,3.77
2018-08-22T04:42:26.909Z,3.50
2018-08-22T04:44:55.155Z,4.00
2018-08-22T04:47:23.390Z,4.03
2018-08-22T04:49:51.608Z,4.07
2018-08-22T04:52:19.808Z,3.70
2018-08-22T04:54:48.059Z,4.17
2018-08-22T04:57:16.243Z,4.10
2018-08-22T04:59:44.524Z,3.93
2018-08-22T05:02:12.809Z,3.90
2018-08-22T05:04:41.092Z,4.10
2018-08-22T05:07:09.315Z,4.03
2018-08-22T05:09:37.525Z,3.80
2018-08-22T05:12:05.732Z,3.80
2018-08-22T05:14:34.015Z,3.67
2018-08-22T05:17:02.268Z,4.07
2018-08-22T05:19:30.496Z,3.73
2018-08-22T05:21:58.715Z,3.60
2018-08-22T05:24:27.591Z,3.50
2018-08-22T05:26:55.780Z,3.50
2018-08-22T05:29:24.160Z,3.30
2018-08-22T05:31:52.418Z,3.90
2018-08-22T05:34:20.600Z,3.30
2018-08-22T05:36:48.986Z,3.80
2018-08-22T05:39:17.248Z,3.90
2018-08-22T05:41:45.447Z,4.17
2018-08-22T05:44:13.631Z,4.73
2018-08-22T05:46:41.852Z,4.50
2018-08-22T05:49:10.123Z,4.43
2018-08-22T05:51:38.335Z,4.60
2018-08-22T05:54:06.717Z,4.63
2018-08-22T05:56:34.887Z,3.90
2018-08-22T05:59:03.084Z,4.20
2018-08-22T06:01:31.469Z,4.20
2018-08-22T06:03:59.736Z,4.60
2018-08-22T06:06:28.037Z,4.70
2018-08-22T06:08:56.243Z,4.80
2018-08-22T06:11:24.516Z,4.60
2018-08-22T06:13:52.733Z,4.53
2018-08-22T06:16:20.921Z,4.20
2018-08-22T06:18:49.229Z,4.63
2018-08-22T06:21:17.450Z,4.63
2018-08-22T06:23:45.617Z,4.60
2018-08-22T06:26:13.820Z,4.90
2018-08-22T06:28:42.071Z,5.60
2018-08-22T06:31:10.257Z,5.67
2018-08-22T06:33:38.508Z,5.20
2018-08-22T06:36:06.748Z,4.70
2018-08-22T06:38:34.948Z,4.53
2018-08-22T06:41:03.151Z,5.27
2018-08-22T06:43:31.360Z,5.60
2018-08-22T06:46:00.539Z,5.40
2018-08-22T06:48:28.784Z,5.50
2018-08-22T06:50:56.976Z,5.60
2018-08-22T06:53:25.328Z,6.13
2018-08-22T06:55:53.547Z,5.50
2018-08-22T06:58:21.789Z,5.57
2018-08-22T07:00:50.090Z,5.73
2018-08-22T07:03:18.400Z,6.00
2018-08-22T07:05:46.659Z,5.63
2018-08-22T07:08:15.013Z,5.10
2018-08-22T07:10:43.190Z,5.53
2018-08-22T07:13:11.452Z,4.57
2018-08-22T07:15:39.700Z,5.40
2018-08-22T07:18:07.900Z,5.00
2018-08-22T07:20:36.096Z,5.20
2018-08-22T07:23:04.304Z,5.60
2018-08-22T07:25:32.566Z,5.17
2018-08-22T07:28:00.976Z,5.37
2018-08-22T07:30:29.205Z,4.83
2018-08-22T07:32:57.460Z,4.53
2018-08-22T07:35:25.669Z,4.73
2018-08-22T07:37:53.933Z,4.17
2018-08-22T07:40:22.128Z,4.70
2018-08-22T07:42:50.557Z,4.53
2018-08-22T07:45:18.866Z,4.50
2018-08-22T07:47:47.056Z,3.90
2018-08-22T07:50:15.380Z,3.60
2018-08-22T07:52:49.105Z,3.53
2018-08-22T07:55:17.308Z,3.70
2018-08-22T07:57:45.653Z,3.97
2018-08-22T08:00:13.912Z,3.20
2018-08-22T08:02:42.112Z,3.63
2018-08-22T08:05:10.408Z,3.50
2018-08-22T08:07:38.660Z,3.80
2018-08-22T08:10:06.905Z,4.30
2018-08-22T08:12:39.896Z,4.07
2018-08-22T08:15:08.642Z,3.77
2018-08-22T08:17:36.831Z,3.70
2018-08-22T08:20:05.428Z,3.63
2018-08-22T08:22:33.673Z,3.40
2018-08-22T08:25:01.881Z,3.87
2018-08-22T08:27:30.174Z,3.97
2018-08-22T08:29:58.359Z,4.20
2018-08-22T08:32:26.628Z,4.00
2018-08-22T08:34:54.905Z,4.03
2018-08-22T08:37:23.127Z,3.93
2018-08-22T08:39:51.404Z,4.37
2018-08-22T08:42:19.605Z,4.00
2018-08-22T08:44:47.843Z,4.53
2018-08-22T08:47:16.085Z,4.10
2018-08-22T08:49:44.357Z,4.37
2018-08-22T08:52:12.589Z,4.60
2018-08-22T08:54:40.859Z,4.33
2018-08-22T08:57:09.085Z,4.80
2018-08-22T08:59:37.235Z,5.10
2018-08-22T09:02:05.468Z,5.87
2018-08-22T09:04:33.668Z,4.90
2018-08-22T09:07:02.190Z,5.13
2018-08-22T09:09:30.383Z,5.63
2018-08-22T09:11:59.688Z,5.53
2018-08-22T09:14:28.205Z,4.47
2018-08-22T09:16:57.044Z,5.17
2018-08-22T09:19:25.438Z,5.30
2018-08-22T09:21:53.657Z,5.20
2018-08-22T09:24:21.883Z,5.90
2018-08-22T09:26:50.108Z,5.53
2018-08-22T09:29:18.304Z,5.40
2018-08-22T09:31:46.524Z,5.33
2018-08-22T09:34:14.773Z,5.93
2018-08-22T09:36:43.066Z,5.63
2018-08-22T09:39:12.561Z,6.30
2018-08-22T09:41:41.102Z,5.40
2018-08-22T09:44:09.378Z,5.90
2018-08-22T09:46:38.672Z,5.40
2018-08-22T09:49:06.863Z,6.30
2018-08-22T09:51:35.074Z,6.00
2018-08-22T09:54:03.503Z,5.80
2018-08-22T09:56:31.723Z,5.28
2018-08-22T09:59:00.085Z,5.92
2018-08-22T10:01:33.604Z,5.90
2018-08-22T10:04:02.356Z,5.62
2018-08-22T10:06:33.969Z,6.25
2018-08-22T10:09:03.331Z,5.87
2018-08-22T10:11:31.593Z,5.43
2018-08-22T10:13:59.817Z,5.93
2018-08-22T10:16:28.903Z,6.20
2018-08-22T10:18:57.280Z,5.60
2018-08-22T10:21:26.175Z,6.50
2018-08-22T10:23:54.432Z,5.83
2018-08-22T10:26:22.788Z,6.03
2018-08-22T10:28:51.140Z,6.12
2018-08-22T10:31:19.353Z,5.65
2018-08-22T10:33:47.630Z,6.58
2018-08-22T10:36:15.824Z,6.28
2018-08-22T10:38:44.092Z,5.70
2018-08-22T10:41:12.300Z,5.53
2018-08-22T10:43:40.505Z,5.97
2018-08-22T10:46:09.485Z,6.40
2018-08-22T10:48:37.699Z,5.83
2018-08-22T10:51:06.416Z,5.75
2018-08-22T10:53:34.660Z,5.20
2018-08-22T10:56:02.852Z,5.83
2018-08-22T10:58:31.198Z,6.75
2018-08-22T11:01:00.020Z,6.30
2018-08-22T11:03:28.316Z,5.90
2018-08-22T11:05:56.539Z,6.25
2018-08-22T11:08:25.049Z,5.90
2018-08-22T11:10:53.310Z,5.85
2018-08-22T11:13:21.574Z,6.72
2018-08-22T11:15:49.919Z,6.35
2018-08-22T11:18:18.056Z,7.00
2018-08-22T11:20:52.305Z,5.78
2018-08-22T11:23:32.342Z,6.28
2018-08-22T11:26:12.318Z,6.05
2018-08-22T11:28:51.940Z,6.70
2018-08-22T11:31:31.549Z,5.97
2018-08-22T11:34:10.967Z,6.85
2018-08-22T11:36:38.151Z,6.65
2018-08-22T11:39:07.271Z,7.05
2018-08-22T11:41:35.472Z,6.90
2018-08-22T11:44:03.696Z,6.87
2018-08-22T11:46:31.969Z,7.28
2018-08-22T11:49:00.172Z,6.78
2018-08-22T11:51:28.405Z,10.23
2018-08-22T11:53:56.614Z,6.80
2018-08-22T11:56:24.891Z,7.35
2018-08-22T11:58:53.168Z,7.83
2018-08-22T12:01:21.387Z,7.17
2018-08-22T12:03:49.867Z,7.10
2018-08-22T12:06:18.096Z,6.97
2018-08-22T12:08:46.304Z,8.20
2018-08-22T12:11:14.545Z,8.40
2018-08-22T12:13:42.736Z,8.58
2018-08-22T12:16:11.020Z,8.75
2018-08-22T12:18:39.168Z,8.35
2018-08-22T12:21:07.448Z,7.25
2018-08-22T12:23:35.712Z,6.62
2018-08-22T12:26:04.001Z,7.03
2018-08-22T12:28:32.268Z,6.47
2018-08-22T12:31:00.490Z,7.05
2018-08-22T12:33:28.636Z,6.92
2018-08-22T12:35:56.922Z,6.78
2018-08-22T12:38:25.302Z,6.90
2018-08-22T12:40:53.552Z,7.42
2018-08-22T12:43:21.775Z,7.10
2018-08-22T12:45:50.072Z,7.05
2018-08-22T12:48:18.296Z,7.30
2018-08-22T12:50:46.584Z,6.90
2018-08-22T12:53:14.832Z,7.37
2018-08-22T12:55:43.089Z,7.62
2018-08-22T12:58:11.373Z,6.42
2018-08-22T13:00:39.664Z,6.53
2018-08-22T13:03:07.891Z,6.83
2018-08-22T13:05:36.235Z,7.40
2018-08-22T13:08:04.503Z,6.72
2018-08-22T13:10:32.704Z,6.00
2018-08-22T13:13:00.956Z,7.03
2018-08-22T13:15:29.224Z,6.58
2018-08-22T13:17:57.606Z,6.60
2018-08-22T13:20:25.884Z,7.03
2018-08-22T13:22:54.159Z,6.17
2018-08-22T13:25:22.424Z,5.83
2018-08-22T13:27:50.736Z,5.67
2018-08-22T13:30:19.025Z,6.15
2018-08-22T13:32:47.407Z,6.47
2018-08-22T13:35:15.540Z,5.90
2018-08-22T13:37:43.730Z,5.67
2018-08-22T13:40:12.111Z,5.92
2018-08-22T13:42:40.476Z,5.80
2018-08-22T13:45:08.820Z,6.30
2018-08-22T13:47:37.029Z,6.20
2018-08-22T13:50:05.336Z,6.00
2018-08-22T13:52:33.893Z,5.72
2018-08-22T13:55:02.072Z,5.47
2018-08-22T13:57:30.351Z,5.62
2018-08-22T13:59:58.600Z,5.10
2018-08-22T14:02:26.849Z,5.87
2018-08-22T14:04:55.070Z,6.08
2018-08-22T14:07:23.256Z,5.42
2018-08-22T14:09:51.527Z,5.67
2018-08-22T14:12:19.784Z,5.58
2018-08-22T14:14:47.977Z,5.47
2018-08-22T14:17:16.165Z,5.78
2018-08-22T14:19:44.453Z,6.55
2018-08-22T14:22:12.624Z,5.42
2018-08-22T14:24:40.859Z,5.20
2018-08-22T14:27:09.060Z,5.20
2018-08-22T14:29:37.264Z,4.83
2018-08-22T14:32:05.960Z,5.25
2018-08-22T14:34:34.183Z,5.28
2018-08-22T14:37:02.485Z,5.33
2018-08-22T14:39:30.677Z,4.78
2018-08-22T14:41:58.924Z,5.40
2018-08-22T14:44:27.220Z,5.53
2018-08-22T14:46:55.458Z,5.58
2018-08-22T14:49:23.653Z,5.90
2018-08-22T14:51:51.855Z,5.03
2018-08-22T14:54:20.105Z,5.30
2018-08-22T14:56:48.332Z,5.15
2018-08-22T14:59:16.532Z,5.40
2018-08-22T15:01:44.798Z,5.47
2018-08-22T15:04:13.112Z,5.45
2018-08-22T15:06:41.307Z,6.30
2018-08-22T15:09:17.395Z,5.40
2018-08-22T15:11:45.625Z,5.37
2018-08-22T15:14:13.800Z,5.90
2018-08-22T15:16:42.109Z,5.92
2018-08-22T15:19:10.386Z,5.80
2018-08-22T15:21:38.660Z,6.22
2018-08-22T15:24:06.904Z,5.80
2018-08-22T15:26:35.140Z,5.95
2018-08-22T15:29:03.332Z,6.17
2018-08-22T15:31:31.531Z,5.85
2018-08-22T15:33:59.824Z,5.67
2018-08-22T15:36:28.089Z,5.95
2018-08-22T15:38:56.242Z,6.05
2018-08-22T15:41:24.491Z,6.42
2018-08-22T15:43:52.716Z,6.00
2018-08-22T15:46:20.985Z,6.12
2018-08-22T15:48:49.280Z,6.60
2018-08-22T15:51:17.516Z,6.60
2018-08-22T15:53:56.016Z,6.22
2018-08-22T15:56:24.236Z,6.80
2018-08-22T15:58:52.553Z,5.90
2018-08-22T16:01:20.789Z,7.40
2018-08-22T16:03:49.050Z,6.95
2018-08-22T16:06:17.251Z,7.10
2018-08-22T16:08:45.445Z,7.37
2018-08-22T16:11:13.771Z,7.55
2018-08-22T16:13:42.065Z,6.85
2018-08-22T16:16:10.305Z,6.92
2018-08-22T16:18:38.500Z,7.00
2018-08-22T16:21:07.024Z,6.97
2018-08-22T16:23:35.709Z,6.95
2018-08-22T16:26:04.892Z,6.92
2018-08-22T16:28:45.508Z,7.55
2018-08-22T16:31:13.861Z,7.50
2018-08-22T16:33:41.897Z,6.70
2018-08-22T16:36:14.332Z,7.50
2018-08-22T16:38:42.556Z,7.87
2018-08-22T16:41:11.040Z,7.92
2018-08-22T16:43:41.443Z,7.87
2018-08-22T16:46:12.424Z,7.62
2018-08-22T16:48:41.547Z,7.72
2018-08-22T16:51:09.872Z,8.83
2018-08-22T16:53:38.170Z,8.28
2018-08-22T16:56:06.556Z,8.25
2018-08-22T16:58:34.970Z,8.48
2018-08-22T17:01:03.135Z,8.63
2018-08-22T17:03:31.325Z,8.78
2018-08-22T17:06:04.821Z,9.00
2018-08-22T17:08:33.061Z,7.65
2018-08-22T17:11:05.237Z,8.50
2018-08-22T17:13:51.520Z,8.08
2018-08-22T17:16:20.149Z,8.00
2018-08-22T17:18:48.476Z,9.10
2018-08-22T17:21:19.107Z,8.50
2018-08-22T17:23:47.814Z,8.93
2018-08-22T17:26:19.992Z,8.65
2018-08-22T17:28:52.714Z,9.13
2018-08-22T17:31:22.028Z,8.33
2018-08-22T17:33:56.832Z,8.80
2018-08-22T17:36:25.156Z,9.50
2018-08-22T17:38:54.700Z,10.07
2018-08-22T17:41:24.315Z,10.03
2018-08-22T17:44:00.687Z,10.15
2018-08-22T17:46:31.320Z,9.50
2018-08-22T17:48:59.563Z,10.23
2018-08-22T17:51:27.883Z,10.00
2018-08-22T17:53:56.157Z,10.07
2018-08-22T17:56:25.541Z,9.60
2018-08-22T17:58:54.732Z,9.50
2018-08-22T18:01:23.387Z,10.17
2018-08-22T18:03:53.849Z,9.75
2018-08-22T18:06:22.096Z,10.53
2018-08-22T18:08:50.364Z,10.93
2018-08-22T18:11:18.577Z,9.20
2018-08-22T18:13:46.826Z,9.50
2018-08-22T18:16:15.025Z,11.00
2018-08-22T18:18:43.225Z,10.03
2018-08-22T18:21:11.464Z,10.27
2018-08-22T18:23:55.920Z,11.70
2018-08-22T18:26:24.147Z,11.03
2018-08-22T18:28:52.395Z,11.97
2018-08-22T18:31:20.640Z,12.83
2018-08-22T18:33:57.657Z,13.30
2018-08-22T18:36:26.916Z,12.60
2018-08-22T18:39:04.432Z,13.43
2018-08-22T18:41:32.764Z,14.03
2018-08-22T18:44:01.321Z,13.93
2018-08-22T18:46:29.518Z,12.70
2018-08-22T18:48:57.752Z,14.83
2018-08-22T18:51:26.024Z,13.50
2018-08-22T18:53:54.323Z,13.10
2018-08-22T18:56:22.727Z,13.10
2018-08-22T18:58:51.415Z,13.40
2018-08-22T19:01:19.773Z,13.53
2018-08-22T19:03:47.968Z,13.83
2018-08-22T19:06:16.175Z,15.37
2018-08-22T19:08:44.420Z,16.07
2018-08-22T19:11:12.725Z,13.93
2018-08-22T19:13:40.880Z,17.00
2018-08-22T19:16:10.346Z,16.50
2018-08-22T19:18:38.949Z,17.40
2018-08-22T19:21:08.586Z,17.63
2018-08-22T19:23:36.850Z,18.50
2018-08-22T19:26:06.012Z,20.37
2018-08-22T19:28:49.483Z,17.90
2018-08-22T19:31:17.714Z,17.17
2018-08-22T19:33:45.948Z,19.07
2018-08-22T19:36:14.152Z,17.60
2018-08-22T19:38:42.842Z,21.37
2018-08-22T19:41:22.388Z,18.77
2018-08-22T19:43:50.647Z,21.47
2018-08-22T19:46:19.703Z,18.43
2018-08-22T19:48:47.934Z,18.87
2018-08-22T19:51:16.176Z,19.60
2018-08-22T19:53:56.438Z,17.57
2018-08-22T19:56:25.158Z,18.40
2018-08-22T19:58:53.259Z,21.00
2018-08-22T20:01:21.541Z,17.30
2018-08-22T20:03:52.721Z,18.87
2018-08-22T20:06:21.419Z,16.47
2018-08-22T20:08:52.709Z,17.40
2018-08-22T20:11:21.100Z,17.13
2018-08-22T20:13:52.745Z,15.80
2018-08-22T20:16:21.972Z,17.07
2018-08-22T20:18:55.849Z,16.63
2018-08-22T20:21:31.941Z,20.10
2018-08-22T20:24:00.936Z,19.00
2018-08-22T20:26:29.561Z,20.33
2018-08-22T20:28:59.036Z,19.60
2018-08-22T20:31:27.303Z,19.87
2018-08-22T20:34:08.632Z,19.17
2018-08-22T20:36:36.838Z,19.23
2018-08-22T20:39:08.697Z,21.53
2018-08-22T20:41:37.373Z,18.43
2018-08-22T20:44:07.669Z,20.50
2018-08-22T20:46:35.888Z,21.93
2018-08-22T20:49:04.131Z,22.27
2018-08-22T20:51:32.825Z,21.67
2018-08-22T20:54:07.032Z,21.10
2018-08-22T20:56:35.813Z,21.00
2018-08-22T20:59:04.017Z,23.50
2018-08-22T21:01:32.275Z,21.47
2018-08-22T21:04:01.570Z,21.43
2018-08-22T21:06:29.847Z,23.67
2018-08-22T21:08:59.115Z,23.10
2018-08-22T21:11:27.332Z,21.83
2018-08-22T21:13:55.618Z,20.30
2018-08-22T21:16:23.849Z,22.20
2018-08-22T21:18:52.225Z,22.00
2018-08-22T21:21:23.400Z,20.80
2018-08-22T21:23:51.660Z,21.30
2018-08-22T21:26:34.198Z,21.77
2018-08-22T21:29:02.448Z,21.93
2018-08-22T21:31:30.726Z,23.47
2018-08-22T21:34:01.935Z,23.03
2018-08-22T21:36:30.154Z,20.87
2018-08-22T21:38:58.371Z,22.50
2018-08-22T21:41:26.639Z,22.03
2018-08-22T21:43:54.903Z,23.53
2018-08-22T21:46:23.139Z,22.23
2018-08-22T21:48:51.365Z,25.07
2018-08-22T21:51:19.636Z,24.50
2018-08-22T21:53:47.901Z,22.30
2018-08-22T21:56:16.576Z,23.50
2018-08-22T21:58:44.780Z,24.70
2018-08-22T22:01:13.032Z,22.07
2018-08-22T22:03:41.447Z,26.97
2018-08-22T22:06:09.691Z,26.23
2018-08-22T22:08:43.242Z,23.93
2018-08-22T22:11:11.466Z,25.90
2018-08-22T22:13:39.659Z,25.00
2018-08-22T22:16:08.018Z,25.47
2018-08-22T22:18:36.288Z,24.13
2018-08-22T22:21:12.375Z,24.30
2018-08-22T22:23:45.568Z,25.50
2018-08-22T22:26:14.749Z,26.63
2018-08-22T22:28:43.012Z,27.27
2018-08-22T22:31:13.277Z,26.87
2018-08-22T22:34:03.292Z,25.27
2018-08-22T22:36:32.835Z,26.10
2018-08-22T22:39:01.039Z,26.20
2018-08-22T22:41:30.594Z,25.63
2018-08-22T22:43:58.845Z,23.77
2018-08-22T22:46:27.052Z,22.90
2018-08-22T22:48:55.269Z,23.00
2018-08-22T22:51:23.523Z,24.07
2018-08-22T22:53:51.780Z,24.57
2018-08-22T22:56:20.012Z,22.90
2018-08-22T22:58:48.254Z,23.90
2018-08-22T23:01:16.515Z,22.13
2018-08-22T23:03:44.804Z,26.00
2018-08-22T23:06:13.190Z,23.97
2018-08-22T23:08:41.419Z,23.97
2018-08-22T23:11:09.817Z,24.63
2018-08-22T23:13:38.020Z,26.67
2018-08-22T23:16:06.277Z,26.50
2018-08-22T23:18:34.542Z,28.67
2018-08-22T23:21:02.743Z,26.67
2018-08-22T23:23:37.202Z,26.77
2018-08-22T23:26:18.580Z,26.90
2018-08-22T23:28:46.810Z,29.23
2018-08-22T23:31:16.567Z,27.97
2018-08-22T23:33:44.799Z,26.83
2018-08-22T23:36:13.040Z,27.00
2018-08-22T23:38:41.252Z,27.83
2018-08-22T23:41:09.465Z,29.57
2018-08-22T23:43:43.921Z,28.53
2018-08-22T23:46:13.088Z,28.67
2018-08-22T23:48:41.567Z,28.63
2018-08-22T23:51:11.088Z,27.83
2018-08-22T23:53:44.746Z,29.67
2018-08-22T23:56:21.840Z,28.60
2018-08-22T23:58:50.656Z,33.70
